Time;durP1;ratioP1;P1;durP2;ratioP2;P2;SDS_P1;SDS_P2;PMS_P1;PMS_P2;Temp;Humidity;BMP_temperature;BMP_pressure;BME280_temperature;BME280_humidity;BME280_pressure;Samples;Min_cycle;Max_cycle;Signal;HPM_P1;HPM_P2
2023/01/08 00:01:24;;;;;;;2.85;2.65;;;;;;;;;;4975490;28;20220;-86
2023/01/08 00:03:52;;;;;;;2.35;2.15;;;;;;;;;;4975273;28;20268;-85
2023/01/08 00:06:21;;;;;;;2.60;2.40;;;;;;;;;;4975406;28;20299;-86
2023/01/08 00:08:48;;;;;;;2.40;2.20;;;;;;;;;;4974813;28;20677;-86
2023/01/08 00:11:16;;;;;;;2.50;2.25;;;;;;;;;;4975053;28;20681;-85
2023/01/08 00:13:44;;;;;;;2.50;2.30;;;;;;;;;;4975697;28;20284;-85
2023/01/08 00:16:16;;;;;;;2.72;2.42;;;;;;;;;;4975560;28;20242;-85
2023/01/08 00:18:43;;;;;;;3.08;2.83;;;;;;;;;;4973288;28;20212;-86
2023/01/08 00:21:11;;;;;;;2.70;2.50;;;;;;;;;;4975569;28;20312;-85
2023/01/08 00:23:39;;;;;;;2.22;2.13;;;;;;;;;;4975227;28;20260;-85
2023/01/08 00:26:09;;;;;;;3.45;2.28;;;;;;;;;;4975155;28;20291;-85
2023/01/08 00:28:37;;;;;;;2.40;2.20;;;;;;;;;;4973120;28;20287;-86
2023/01/08 00:31:06;;;;;;;4.07;2.88;;;;;;;;;;4974382;28;20675;-86
2023/01/08 00:33:35;;;;;;;2.33;2.13;;;;;;;;;;4974986;28;20299;-86
2023/01/08 00:36:08;;;;;;;2.75;2.38;;;;;;;;;;4975051;28;20288;-85
2023/01/08 00:38:36;;;;;;;2.50;2.30;;;;;;;;;;4974232;28;20227;-87
2023/01/08 00:41:04;;;;;;;2.63;2.42;;;;;;;;;;4974603;28;20771;-85
2023/01/08 00:43:32;;;;;;;2.30;2.05;;;;;;;;;;4974863;28;20292;-85
2023/01/08 00:45:59;;;;;;;2.22;2.03;;;;;;;;;;4974861;28;20291;-85
2023/01/08 00:48:27;;;;;;;2.33;2.13;;;;;;;;;;4973581;28;20200;-85
2023/01/08 00:50:56;;;;;;;2.15;1.95;;;;;;;;;;4974766;28;20230;-85
2023/01/08 00:53:24;;;;;;;2.22;2.10;;;;;;;;;;4974447;28;20288;-85
2023/01/08 00:55:59;;;;;;;2.50;2.30;;;;;;;;;;4974112;28;20761;-84
2023/01/08 00:58:26;;;;;;;2.55;2.17;;;;;;;;;;4974046;28;20227;-86
2023/01/08 01:00:54;;;;;;;2.72;2.53;;;;;;;;;;4974331;28;20223;-85
2023/01/08 01:03:21;;;;;;;2.40;2.20;;;;;;;;;;4974546;28;20295;-86
2023/01/08 01:05:49;;;;;;;2.58;2.38;;;;;;;;;;4974322;28;20296;-86
2023/01/08 01:08:18;;;;;;;2.05;1.90;;;;;;;;;;4973650;28;20212;-85
2023/01/08 01:10:45;;;;;;;2.95;2.75;;;;;;;;;;4974136;28;20669;-85
2023/01/08 01:13:13;;;;;;;6.60;2.97;;;;;;;;;;4974180;28;20288;-86
2023/01/08 01:15:40;;;;;;;6.57;2.22;;;;;;;;;;4974249;28;20196;-85
2023/01/08 01:18:09;;;;;;;2.47;2.28;;;;;;;;;;4973713;28;20656;-85
2023/01/08 01:20:36;;;;;;;2.53;2.33;;;;;;;;;;4973764;28;20894;-84
2023/01/08 01:23:05;;;;;;;2.88;2.67;;;;;;;;;;4974230;28;20294;-85
2023/01/08 01:25:37;;;;;;;2.58;2.38;;;;;;;;;;4974434;28;20200;-86
2023/01/08 01:28:05;;;;;;;2.78;2.55;;;;;;;;;;4973794;28;20196;-88
2023/01/08 01:30:33;;;;;;;2.95;2.55;;;;;;;;;;4972801;28;20820;-85
2023/01/08 01:33:00;;;;;;;2.70;2.47;;;;;;;;;;4974384;28;20211;-85
2023/01/08 01:35:28;;;;;;;2.40;2.20;;;;;;;;;;4974025;28;20193;-85
2023/01/08 01:37:55;;;;;;;3.47;2.78;;;;;;;;;;4973794;28;20231;-86
2023/01/08 01:40:23;;;;;;;2.38;2.15;;;;;;;;;;4973625;28;20224;-85
2023/01/08 01:42:51;;;;;;;2.92;2.40;;;;;;;;;;4973891;28;20299;-86
2023/01/08 01:45:22;;;;;;;3.00;2.67;;;;;;;;;;4974181;28;20228;-85
2023/01/08 01:47:55;;;;;;;3.85;3.30;;;;;;;;;;4973912;28;20208;-86
2023/01/08 01:50:28;;;;;;;3.15;2.80;;;;;;;;;;4973338;28;20224;-85
2023/01/08 01:53:01;;;;;;;3.05;2.53;;;;;;;;;;4973575;28;20200;-86
2023/01/08 01:55:29;;;;;;;3.60;3.30;;;;;;;;;;4974043;28;20188;-85
2023/01/08 01:58:03;;;;;;;3.10;2.90;;;;;;;;;;4974019;28;20204;-86
2023/01/08 02:00:32;;;;;;;2.92;2.70;;;;;;;;;;4978146;28;20227;-85
2023/01/08 02:03:00;;;;;;;3.40;2.55;;;;;;;;;;4977974;28;20288;-85
2023/01/08 02:05:36;;;;;;;2.75;2.55;;;;;;;;;;4977525;28;20649;-85
2023/01/08 02:08:11;;;;;;;2.47;2.28;;;;;;;;;;4977396;28;20192;-85
2023/01/08 02:10:46;;;;;;;4.45;3.70;;;;;;;;;;4977970;28;20220;-86
2023/01/08 02:13:20;;;;;;;3.53;3.10;;;;;;;;;;4977554;28;20224;-85
2023/01/08 02:15:54;;;;;;;3.05;2.85;;;;;;;;;;4977547;28;20212;-86
2023/01/08 02:18:28;;;;;;;2.97;2.50;;;;;;;;;;4977118;28;20283;-85
2023/01/08 02:20:57;;;;;;;2.67;2.47;;;;;;;;;;4977502;28;20220;-85
2023/01/08 02:23:34;;;;;;;3.22;2.90;;;;;;;;;;4977820;28;20283;-85
2023/01/08 02:26:23;;;;;;;4.03;2.80;;;;;;;;;;4978055;28;20208;-85
2023/01/08 02:28:55;;;;;;;3.85;3.20;;;;;;;;;;4974832;28;20216;-85
2023/01/08 02:31:25;;;;;;;3.38;3.08;;;;;;;;;;4977169;28;20232;-85
2023/01/08 02:33:53;;;;;;;3.10;2.90;;;;;;;;;;4977551;28;20293;-86
2023/01/08 02:36:32;;;;;;;2.75;2.55;;;;;;;;;;4977125;28;20210;-84
2023/01/08 02:39:34;;;;;;;2.97;2.72;;;;;;;;;;4976698;28;20195;-85
2023/01/08 02:42:09;;;;;;;3.75;3.33;;;;;;;;;;4977027;28;20640;-85
2023/01/08 02:44:54;;;;;;;3.40;2.55;;;;;;;;;;4977419;28;20190;-85
2023/01/08 02:47:29;;;;;;;7.78;3.42;;;;;;;;;;4976993;28;20227;-86
2023/01/08 02:50:11;;;;;;;2.80;2.60;;;;;;;;;;4976203;28;20207;-85
2023/01/08 02:52:47;;;;;;;3.85;3.45;;;;;;;;;;4977040;28;20218;-85
2023/01/08 02:55:16;;;;;;;2.70;2.50;;;;;;;;;;4977257;28;20206;-85
2023/01/08 02:57:45;;;;;;;5.30;2.92;;;;;;;;;;4977157;28;20220;-85
2023/01/08 03:00:14;;;;;;;3.03;2.60;;;;;;;;;;4976085;28;20315;-85
2023/01/08 03:02:42;;;;;;;3.28;2.97;;;;;;;;;;4976494;28;20279;-85
2023/01/08 03:05:17;;;;;;;3.05;2.85;;;;;;;;;;4976401;28;20661;-85
2023/01/08 03:07:44;;;;;;;2.70;2.50;;;;;;;;;;4976416;28;20295;-85
2023/01/08 03:10:12;;;;;;;3.20;2.60;;;;;;;;;;4975328;28;20627;-85
2023/01/08 03:12:52;;;;;;;3.10;2.90;;;;;;;;;;4976449;28;20337;-84
2023/01/08 03:15:25;;;;;;;2.50;2.30;;;;;;;;;;4976245;28;20199;-85
2023/01/08 03:17:57;;;;;;;2.75;2.55;;;;;;;;;;4976463;28;20228;-86
2023/01/08 03:20:25;;;;;;;3.53;2.85;;;;;;;;;;4956622;29;20217;-85
2023/01/08 03:22:57;;;;;;;3.42;3.13;;;;;;;;;;4957257;29;20205;-84
2023/01/08 03:25:26;;;;;;;2.53;2.40;;;;;;;;;;4957169;29;20196;-85
2023/01/08 03:27:59;;;;;;;2.70;2.50;;;;;;;;;;4956630;29;20215;-85
2023/01/08 03:30:27;;;;;;;3.60;2.22;;;;;;;;;;4955494;29;20236;-85
2023/01/08 03:32:56;;;;;;;2.38;2.17;;;;;;;;;;4956385;29;20249;-85
2023/01/08 03:35:25;;;;;;;3.08;2.85;;;;;;;;;;4956717;29;20247;-84
2023/01/08 03:37:58;;;;;;;2.50;2.30;;;;;;;;;;4956707;29;20232;-85
2023/01/08 03:40:31;;;;;;;2.92;2.67;;;;;;;;;;4956303;29;20244;-84
2023/01/08 03:43:00;;;;;;;4.68;2.38;;;;;;;;;;4956835;29;20287;-85
2023/01/08 03:45:31;;;;;;;2.80;2.60;;;;;;;;;;4956295;29;20216;-85
2023/01/08 03:47:58;;;;;;;2.72;2.40;;;;;;;;;;4955750;29;20583;-86
2023/01/08 03:50:28;;;;;;;2.50;2.30;;;;;;;;;;4956308;29;20307;-85
2023/01/08 03:52:56;;;;;;;2.40;2.00;;;;;;;;;;4956024;29;20308;-85
2023/01/08 03:55:23;;;;;;;3.08;2.80;;;;;;;;;;4956466;29;20296;-85
2023/01/08 03:57:51;;;;;;;2.60;2.40;;;;;;;;;;4956442;29;20283;-85
2023/01/08 04:00:20;;;;;;;3.30;2.60;;;;;;;;;;4955788;29;20410;-85
2023/01/08 04:02:47;;;;;;;2.53;2.33;;;;;;;;;;4955878;29;20313;-85
2023/01/08 04:05:15;;;;;;;2.45;2.25;;;;;;;;;;4956246;29;20291;-84
2023/01/08 04:07:48;;;;;;;2.97;2.75;;;;;;;;;;4956226;29;20633;-85
2023/01/08 04:10:16;;;;;;;2.67;2.45;;;;;;;;;;4954011;29;20235;-85
2023/01/08 04:12:44;;;;;;;3.15;2.85;;;;;;;;;;4955944;29;20320;-85
2023/01/08 04:15:12;;;;;;;3.17;2.92;;;;;;;;;;4956044;29;20208;-84
2023/01/08 04:17:41;;;;;;;3.70;2.60;;;;;;;;;;4955889;29;20672;-85
2023/01/08 04:20:10;;;;;;;2.80;2.60;;;;;;;;;;4972331;28;20711;-85
2023/01/08 04:22:37;;;;;;;3.75;3.30;;;;;;;;;;4974536;28;20207;-85
2023/01/08 04:25:05;;;;;;;3.70;3.30;;;;;;;;;;4974830;28;20202;-85
2023/01/08 04:27:33;;;;;;;2.50;2.30;;;;;;;;;;4974624;28;20299;-84
2023/01/08 04:30:00;;;;;;;2.58;2.38;;;;;;;;;;4972309;28;20304;-85
2023/01/08 04:32:28;;;;;;;2.83;2.63;;;;;;;;;;4974880;28;20311;-85
2023/01/08 04:34:57;;;;;;;2.63;2.42;;;;;;;;;;4974862;28;20291;-85
2023/01/08 04:37:24;;;;;;;2.78;2.58;;;;;;;;;;4974746;28;20299;-85
2023/01/08 04:39:52;;;;;;;2.08;1.98;;;;;;;;;;4973983;28;20297;-84
2023/01/08 04:42:19;;;;;;;2.53;2.33;;;;;;;;;;4974187;28;20290;-85
2023/01/08 04:44:47;;;;;;;2.65;2.45;;;;;;;;;;4974442;28;20291;-85
2023/01/08 04:47:14;;;;;;;2.33;2.13;;;;;;;;;;4974361;28;20212;-85
2023/01/08 04:49:42;;;;;;;2.35;2.25;;;;;;;;;;4973657;28;20228;-85
2023/01/08 04:52:11;;;;;;;2.53;2.33;;;;;;;;;;4974368;28;20292;-85
2023/01/08 04:54:38;;;;;;;2.50;2.30;;;;;;;;;;4974712;28;20201;-85
2023/01/08 04:57:06;;;;;;;3.25;2.95;;;;;;;;;;4974767;28;20287;-84
2023/01/08 04:59:33;;;;;;;2.47;2.28;;;;;;;;;;4974103;28;20232;-84
2023/01/08 05:02:01;;;;;;;3.58;3.28;;;;;;;;;;4974356;28;20224;-84
2023/01/08 05:04:28;;;;;;;2.67;2.47;;;;;;;;;;4974162;28;20291;-85
2023/01/08 05:06:56;;;;;;;2.33;2.10;;;;;;;;;;4974428;28;20220;-85
2023/01/08 05:09:25;;;;;;;4.95;2.47;;;;;;;;;;4973382;28;20299;-84
2023/01/08 05:11:52;;;;;;;2.17;2.08;;;;;;;;;;4974311;28;20293;-85
2023/01/08 05:14:20;;;;;;;1.95;1.83;;;;;;;;;;4973707;28;20318;-84
2023/01/08 05:16:47;;;;;;;2.35;2.15;;;;;;;;;;4974146;28;20673;-85
2023/01/08 05:19:15;;;;;;;2.92;2.25;;;;;;;;;;4973476;28;20676;-85
2023/01/08 05:21:42;;;;;;;2.13;2.03;;;;;;;;;;4973631;28;20224;-85
2023/01/08 05:24:10;;;;;;;2.17;1.98;;;;;;;;;;4973926;28;20641;-84
2023/01/08 05:26:39;;;;;;;2.25;2.13;;;;;;;;;;4974165;28;20291;-85
2023/01/08 05:29:06;;;;;;;3.55;2.95;;;;;;;;;;4971050;28;20950;-85
2023/01/08 05:31:34;;;;;;;2.40;2.20;;;;;;;;;;4973490;28;20307;-85
2023/01/08 05:34:01;;;;;;;2.08;1.98;;;;;;;;;;4972841;28;20315;-85
2023/01/08 05:36:29;;;;;;;1.90;1.73;;;;;;;;;;4973408;28;20211;-84
2023/01/08 05:38:57;;;;;;;2.17;2.08;;;;;;;;;;4973032;28;20211;-85
2023/01/08 05:41:25;;;;;;;2.65;2.45;;;;;;;;;;4973582;28;20718;-87
2023/01/08 05:43:53;;;;;;;2.28;2.15;;;;;;;;;;4973657;28;20287;-86
2023/01/08 05:46:21;;;;;;;2.10;1.90;;;;;;;;;;4973735;28;20197;-86
2023/01/08 05:48:48;;;;;;;1.77;1.67;;;;;;;;;;4973047;28;20211;-86
2023/01/08 05:51:16;;;;;;;2.13;1.92;;;;;;;;;;4973419;28;20256;-87
2023/01/08 05:53:43;;;;;;;2.33;2.13;;;;;;;;;;4973562;28;20670;-86
2023/01/08 05:56:12;;;;;;;2.40;2.20;;;;;;;;;;4973483;28;20291;-87
2023/01/08 05:58:40;;;;;;;2.13;2.03;;;;;;;;;;4972864;28;20283;-87
2023/01/08 06:01:11;;;;;;;1.65;1.58;;;;;;;;;;4973523;28;20303;-88
2023/01/08 06:03:39;;;;;;;2.40;2.00;;;;;;;;;;4973578;28;20288;-87
2023/01/08 06:06:08;;;;;;;1.70;1.60;;;;;;;;;;4973196;28;20222;-88
2023/01/08 06:08:35;;;;;;;1.60;1.50;;;;;;;;;;4972949;28;20659;-87
2023/01/08 06:11:05;;;;;;;2.05;1.70;;;;;;;;;;4973566;28;20227;-88
2023/01/08 06:13:33;;;;;;;2.03;1.92;;;;;;;;;;4973357;28;20220;-88
2023/01/08 06:16:01;;;;;;;1.17;1.17;;;;;;;;;;4973516;28;20287;-86
2023/01/08 06:18:31;;;;;;;1.80;1.70;;;;;;;;;;4973245;28;20204;-88
2023/01/08 06:20:59;;;;;;;1.42;1.33;;;;;;;;;;4973038;28;20242;-87
2023/01/08 06:23:26;;;;;;;1.67;1.58;;;;;;;;;;4973342;28;20295;-87
2023/01/08 06:25:55;;;;;;;1.70;1.60;;;;;;;;;;4973637;28;20287;-88
2023/01/08 06:28:23;;;;;;;1.95;1.80;;;;;;;;;;4971831;28;20219;-87
2023/01/08 06:30:51;;;;;;;1.50;1.40;;;;;;;;;;4972762;28;20212;-87
2023/01/08 06:33:19;;;;;;;2.17;1.67;;;;;;;;;;4973019;28;20205;-88
2023/01/08 06:35:48;;;;;;;1.80;1.70;;;;;;;;;;4973356;28;20287;-86
2023/01/08 06:38:17;;;;;;;1.80;1.70;;;;;;;;;;4972444;28;20228;-87
2023/01/08 06:40:45;;;;;;;1.75;1.63;;;;;;;;;;4973414;28;20315;-87
2023/01/08 06:43:13;;;;;;;1.60;1.50;;;;;;;;;;4973141;28;20201;-87
2023/01/08 06:45:40;;;;;;;1.35;1.35;;;;;;;;;;4975122;28;20204;-87
2023/01/08 06:48:08;;;;;;;1.45;1.35;;;;;;;;;;4975869;28;20294;-87
2023/01/08 06:50:36;;;;;;;1.92;1.73;;;;;;;;;;4976405;28;20244;-87
2023/01/08 06:53:05;;;;;;;1.40;1.30;;;;;;;;;;4976606;28;20654;-88
2023/01/08 06:55:33;;;;;;;3.17;2.28;;;;;;;;;;4976107;28;20307;-87
2023/01/08 06:58:00;;;;;;;1.83;1.48;;;;;;;;;;4976083;28;20295;-88
2023/01/08 07:00:28;;;;;;;1.60;1.50;;;;;;;;;;4976365;28;20263;-87
2023/01/08 07:02:56;;;;;;;1.15;1.15;;;;;;;;;;4976466;28;20200;-86
2023/01/08 07:05:24;;;;;;;1.38;1.27;;;;;;;;;;4976470;28;20204;-87
2023/01/08 07:07:51;;;;;;;2.55;1.63;;;;;;;;;;4976436;28;20204;-87
2023/01/08 07:10:20;;;;;;;1.52;1.42;;;;;;;;;;4975805;28;20315;-87
2023/01/08 07:12:56;;;;;;;1.58;1.15;;;;;;;;;;4976329;28;20204;-88
2023/01/08 07:15:26;;;;;;;1.50;1.40;;;;;;;;;;4976541;28;20290;-87
2023/01/08 07:18:00;;;;;;;1.05;1.05;;;;;;;;;;4976328;28;20235;-87
2023/01/08 07:20:28;;;;;;;1.08;1.08;;;;;;;;;;4975958;28;20243;-87
2023/01/08 07:23:14;;;;;;;1.00;1.00;;;;;;;;;;4976053;28;20968;-87
2023/01/08 07:25:43;;;;;;;1.33;1.20;;;;;;;;;;4975998;28;20676;-89
2023/01/08 07:28:13;;;;;;;1.05;1.00;;;;;;;;;;4975729;28;20224;-88
2023/01/08 07:30:43;;;;;;;1.15;1.13;;;;;;;;;;4974555;28;20604;-88
2023/01/08 07:33:11;;;;;;;1.00;1.00;;;;;;;;;;4975877;28;20292;-89
2023/01/08 07:35:41;;;;;;;1.25;1.15;;;;;;;;;;4975562;28;20282;-88
2023/01/08 07:38:12;;;;;;;1.23;1.23;;;;;;;;;;4975645;28;20215;-89
2023/01/08 07:40:43;;;;;;;1.80;1.70;;;;;;;;;;4975903;28;20228;-88
2023/01/08 07:43:11;;;;;;;0.90;0.90;;;;;;;;;;4975824;28;20287;-89
2023/01/08 07:45:42;;;;;;;0.98;0.98;;;;;;;;;;4975996;28;20627;-88
2023/01/08 07:48:18;;;;;;;1.20;1.20;;;;;;;;;;4975223;28;20259;-88
2023/01/08 07:50:46;;;;;;;0.90;0.90;;;;;;;;;;4975702;28;20236;-88
2023/01/08 07:53:16;;;;;;;0.93;0.80;;;;;;;;;;4975809;28;20308;-88
2023/01/08 07:55:55;;;;;;;0.90;0.90;;;;;;;;;;4974656;28;20231;-89
2023/01/08 07:58:23;;;;;;;0.90;0.90;;;;;;;;;;4975213;28;20208;-88
2023/01/08 08:00:56;;;;;;;0.90;0.90;;;;;;;;;;4975581;28;20236;-88
2023/01/08 08:03:23;;;;;;;1.10;1.10;;;;;;;;;;4975589;28;20223;-86
2023/01/08 08:05:51;;;;;;;1.27;1.17;;;;;;;;;;4974718;28;20215;-85
2023/01/08 08:08:19;;;;;;;1.20;1.10;;;;;;;;;;4973918;28;20208;-85
2023/01/08 08:10:47;;;;;;;0.90;0.90;;;;;;;;;;4974312;28;20323;-86
2023/01/08 08:13:16;;;;;;;1.10;0.98;;;;;;;;;;4974566;28;20295;-87
2023/01/08 08:15:44;;;;;;;1.08;1.08;;;;;;;;;;4974233;28;20283;-86
2023/01/08 08:18:11;;;;;;;1.40;1.30;;;;;;;;;;4973236;28;20705;-87
2023/01/08 08:20:39;;;;;;;1.30;1.23;;;;;;;;;;4974411;28;20324;-87
2023/01/08 08:23:11;;;;;;;0.93;0.93;;;;;;;;;;4974189;28;20214;-87
2023/01/08 08:25:39;;;;;;;1.10;1.10;;;;;;;;;;4974353;28;20645;-87
2023/01/08 08:28:07;;;;;;;1.10;1.10;;;;;;;;;;4972938;28;20204;-85
2023/01/08 08:30:37;;;;;;;1.27;1.17;;;;;;;;;;4972899;28;20250;-85
2023/01/08 08:33:06;;;;;;;1.20;1.20;;;;;;;;;;4973408;28;20200;-85
2023/01/08 08:35:34;;;;;;;1.80;1.70;;;;;;;;;;4973192;28;20250;-86
2023/01/08 08:38:02;;;;;;;1.55;1.45;;;;;;;;;;4972735;28;20711;-87
2023/01/08 08:40:30;;;;;;;1.73;1.63;;;;;;;;;;4972738;28;20256;-85
2023/01/08 08:42:59;;;;;;;1.52;1.42;;;;;;;;;;4973074;28;20639;-85
2023/01/08 08:45:27;;;;;;;1.50;1.40;;;;;;;;;;4973073;28;20675;-85
2023/01/08 08:47:56;;;;;;;1.60;1.50;;;;;;;;;;4973287;28;20208;-86
2023/01/08 08:50:24;;;;;;;1.70;1.60;;;;;;;;;;4972987;28;20251;-84
2023/01/08 08:52:51;;;;;;;1.52;1.40;;;;;;;;;;4972464;28;20287;-84
2023/01/08 08:55:19;;;;;;;1.25;1.20;;;;;;;;;;4972900;28;20673;-85
2023/01/08 08:57:48;;;;;;;1.27;1.17;;;;;;;;;;4972610;28;20232;-85
2023/01/08 09:00:17;;;;;;;1.58;1.48;;;;;;;;;;4972305;28;20220;-85
2023/01/08 09:02:44;;;;;;;1.45;1.35;;;;;;;;;;4972979;28;20211;-85
2023/01/08 09:05:13;;;;;;;1.58;1.48;;;;;;;;;;4972198;28;20200;-85
2023/01/08 09:07:41;;;;;;;1.10;1.10;;;;;;;;;;4971615;28;20295;-84
2023/01/08 09:10:09;;;;;;;1.40;1.30;;;;;;;;;;4972073;28;20682;-85
2023/01/08 09:12:37;;;;;;;1.50;1.40;;;;;;;;;;4972300;28;20713;-85
2023/01/08 09:15:05;;;;;;;1.20;1.20;;;;;;;;;;4971661;28;20320;-84
2023/01/08 09:17:35;;;;;;;1.42;1.33;;;;;;;;;;4971831;28;20211;-86
2023/01/08 09:20:03;;;;;;;1.77;1.67;;;;;;;;;;4971585;28;20447;-86
2023/01/08 09:22:32;;;;;;;1.75;1.65;;;;;;;;;;4972120;28;20214;-85
2023/01/08 09:24:59;;;;;;;1.50;1.40;;;;;;;;;;4972542;28;20298;-85
2023/01/08 09:27:27;;;;;;;2.28;1.25;;;;;;;;;;4973081;28;20200;-84
2023/01/08 09:29:54;;;;;;;1.30;1.30;;;;;;;;;;4970501;28;20664;-84
2023/01/08 09:32:22;;;;;;;1.20;1.20;;;;;;;;;;4972671;28;20299;-85
2023/01/08 09:34:49;;;;;;;1.20;1.15;;;;;;;;;;4972609;28;20211;-88
2023/01/08 09:37:18;;;;;;;1.27;1.27;;;;;;;;;;4972963;28;20315;-84
2023/01/08 09:39:47;;;;;;;1.15;1.15;;;;;;;;;;4972177;28;20204;-86
2023/01/08 09:42:15;;;;;;;1.30;1.30;;;;;;;;;;4973537;28;20208;-88
2023/01/08 09:44:44;;;;;;;1.38;1.30;;;;;;;;;;4973204;28;20292;-86
2023/01/08 09:47:24;;;;;;;1.13;1.10;;;;;;;;;;4973122;28;21003;-88
2023/01/08 09:49:54;;;;;;;1.48;1.38;;;;;;;;;;4972719;28;20283;-87
2023/01/08 09:52:22;;;;;;;1.63;1.52;;;;;;;;;;4973556;28;20235;-88
2023/01/08 09:54:51;;;;;;;1.63;1.52;;;;;;;;;;4973310;28;20232;-88
2023/01/08 09:57:21;;;;;;;1.40;1.30;;;;;;;;;;4972885;28;20315;-87
2023/01/08 09:59:49;;;;;;;1.80;1.70;;;;;;;;;;4972178;28;20226;-88
2023/01/08 10:02:19;;;;;;;1.42;1.30;;;;;;;;;;4973409;28;20205;-88
2023/01/08 10:04:48;;;;;;;1.75;1.58;;;;;;;;;;4973596;28;20582;-86
2023/01/08 10:07:21;;;;;;;2.05;1.95;;;;;;;;;;4972672;28;20296;-84
2023/01/08 10:09:51;;;;;;;1.70;1.60;;;;;;;;;;4971843;28;20188;-84
2023/01/08 10:12:26;;;;;;;1.60;1.50;;;;;;;;;;4973089;28;20283;-89
2023/01/08 10:14:55;;;;;;;5.10;1.98;;;;;;;;;;4979223;28;20203;-85
2023/01/08 10:17:28;;;;;;;1.60;1.50;;;;;;;;;;4992048;28;20307;-90
2023/01/08 10:19:55;;;;;;;1.80;1.67;;;;;;;;;;4978177;28;20243;-86
2023/01/08 10:22:29;;;;;;;1.98;1.88;;;;;;;;;;4976908;28;20200;-88
2023/01/08 10:25:08;;;;;;;2.10;1.90;;;;;;;;;;4976694;28;20212;-85
2023/01/08 10:27:46;;;;;;;2.15;2.03;;;;;;;;;;4976166;28;20231;-89
2023/01/08 10:30:18;;;;;;;1.60;1.50;;;;;;;;;;4975462;28;20716;-89
2023/01/08 10:32:53;;;;;;;1.80;1.70;;;;;;;;;;4977172;28;20254;-89
2023/01/08 10:35:24;;;;;;;1.75;1.65;;;;;;;;;;4976688;28;20185;-87
2023/01/08 10:37:51;;;;;;;1.73;1.63;;;;;;;;;;4972954;28;20234;-87
2023/01/08 10:40:28;;;;;;;1.50;1.40;;;;;;;;;;4975576;28;20307;-89
2023/01/08 10:42:56;;;;;;;1.35;1.25;;;;;;;;;;4976099;28;20203;-85
2023/01/08 10:45:26;;;;;;;1.50;1.40;;;;;;;;;;4975995;28;20205;-87
2023/01/08 10:47:57;;;;;;;1.88;1.77;;;;;;;;;;4976864;28;20219;-86
2023/01/08 10:50:28;;;;;;;1.63;1.52;;;;;;;;;;4975763;28;20666;-90
2023/01/08 10:52:57;;;;;;;1.40;1.30;;;;;;;;;;4977155;28;20196;-89
2023/01/08 10:55:30;;;;;;;1.77;1.60;;;;;;;;;;4976389;28;20578;-85
2023/01/08 10:58:00;;;;;;;1.67;1.58;;;;;;;;;;4975241;28;20208;-86
2023/01/08 11:00:30;;;;;;;1.48;1.38;;;;;;;;;;4975586;28;20311;-86
2023/01/08 11:03:00;;;;;;;1.70;1.60;;;;;;;;;;4975965;28;20200;-88
2023/01/08 11:05:33;;;;;;;2.42;2.22;;;;;;;;;;4975919;28;20208;-86
2023/01/08 11:08:02;;;;;;;3.97;3.58;;;;;;;;;;4975376;28;20254;-88
2023/01/08 11:10:31;;;;;;;2.20;1.90;;;;;;;;;;4975598;28;20716;-87
2023/01/08 11:13:01;;;;;;;1.77;1.40;;;;;;;;;;4975919;28;20627;-87
2023/01/08 11:15:32;;;;;;;1.60;1.50;;;;;;;;;;4976012;28;20201;-87
2023/01/08 11:18:19;;;;;;;1.40;1.40;;;;;;;;;;4975240;28;20692;-87
2023/01/08 11:20:47;;;;;;;1.40;1.40;;;;;;;;;;4955919;29;20331;-86
2023/01/08 11:23:19;;;;;;;1.63;1.52;;;;;;;;;;4956735;29;20297;-88
2023/01/08 11:25:55;;;;;;;2.35;1.65;;;;;;;;;;4956446;29;20273;-88
2023/01/08 11:28:31;;;;;;;1.40;1.30;;;;;;;;;;4955188;29;20284;-88
2023/01/08 11:31:09;;;;;;;1.15;1.15;;;;;;;;;;4953792;28;20324;-89
2023/01/08 11:33:38;;;;;;;1.30;1.30;;;;;;;;;;4956278;29;20636;-88
2023/01/08 11:36:13;;;;;;;1.50;1.40;;;;;;;;;;4956367;29;20204;-88
2023/01/08 11:38:41;;;;;;;1.58;1.48;;;;;;;;;;4955901;29;20218;-87
2023/01/08 11:41:22;;;;;;;1.60;1.50;;;;;;;;;;4956018;29;20221;-88
2023/01/08 11:44:06;;;;;;;1.63;1.52;;;;;;;;;;4956450;29;20290;-88
2023/01/08 11:46:40;;;;;;;1.60;1.50;;;;;;;;;;4956325;29;20197;-88
2023/01/08 11:49:30;;;;;;;2.13;2.00;;;;;;;;;;4966973;28;20668;-87
2023/01/08 11:52:18;;;;;;;1.27;1.20;;;;;;;;;;4955747;29;20316;-87
2023/01/08 11:55:06;;;;;;;1.40;1.30;;;;;;;;;;4965411;28;20652;-87
2023/01/08 11:57:48;;;;;;;1.90;1.73;;;;;;;;;;4955848;29;20713;-88
2023/01/08 12:00:38;;;;;;;1.33;1.30;;;;;;;;;;4954978;29;20947;-87
2023/01/08 12:03:16;;;;;;;1.35;1.30;;;;;;;;;;4955836;29;20201;-87
2023/01/08 12:05:48;;;;;;;2.08;1.90;;;;;;;;;;4955701;29;20280;-87
2023/01/08 12:08:24;;;;;;;1.08;1.08;;;;;;;;;;4955073;29;20745;-90
2023/01/08 12:11:03;;;;;;;1.27;1.27;;;;;;;;;;4955485;29;20711;-88
2023/01/08 12:14:14;;;;;;;1.48;1.38;;;;;;;;;;4955646;29;20201;-87
2023/01/08 12:17:00;;;;;;;1.63;1.52;;;;;;;;;;4945690;29;20211;-88
2023/01/08 12:19:42;;;;;;;1.55;1.42;;;;;;;;;;4967153;28;20693;-88
2023/01/08 12:22:31;;;;;;;1.92;1.65;;;;;;;;;;4974935;28;20299;-88
2023/01/08 12:25:32;;;;;;;1.25;1.15;;;;;;;;;;4975254;28;20271;-88
2023/01/08 12:28:19;;;;;;;1.40;1.30;;;;;;;;;;4973644;28;20207;-88
2023/01/08 12:31:07;;;;;;;1.50;1.33;;;;;;;;;;4972966;28;20224;-88
2023/01/08 12:33:37;;;;;;;1.33;1.23;;;;;;;;;;4974910;28;20601;-88
2023/01/08 12:36:10;;;;;;;1.63;1.42;;;;;;;;;;4974755;28;20291;-89
2023/01/08 12:38:42;;;;;;;1.70;1.60;;;;;;;;;;4974241;28;20216;-88
2023/01/08 12:41:16;;;;;;;1.60;1.50;;;;;;;;;;4974826;28;20314;-88
2023/01/08 12:43:51;;;;;;;1.88;1.70;;;;;;;;;;4974438;28;20310;-87
2023/01/08 12:46:21;;;;;;;1.30;1.30;;;;;;;;;;4974585;28;20204;-88
2023/01/08 12:48:53;;;;;;;1.70;1.60;;;;;;;;;;4973815;28;20303;-88
2023/01/08 12:51:28;;;;;;;1.70;1.60;;;;;;;;;;4974304;28;20235;-88
2023/01/08 12:54:04;;;;;;;1.50;1.40;;;;;;;;;;4974381;28;20196;-88
2023/01/08 12:56:41;;;;;;;1.65;1.55;;;;;;;;;;4974290;28;20287;-88
2023/01/08 12:59:21;;;;;;;1.75;1.65;;;;;;;;;;4973962;28;20307;-88
2023/01/08 13:01:55;;;;;;;1.23;1.20;;;;;;;;;;4974051;28;20279;-89
2023/01/08 13:04:41;;;;;;;1.30;1.20;;;;;;;;;;4974107;28;20199;-88
2023/01/08 13:07:17;;;;;;;1.30;1.20;;;;;;;;;;4974025;28;20208;-88
2023/01/08 13:10:00;;;;;;;1.13;1.13;;;;;;;;;;4973733;28;20796;-88
2023/01/08 13:12:34;;;;;;;1.40;1.15;;;;;;;;;;4974421;28;20642;-88
2023/01/08 13:15:02;;;;;;;1.40;1.30;;;;;;;;;;4985921;28;20199;-88
2023/01/08 13:17:35;;;;;;;0.90;0.90;;;;;;;;;;4978521;28;20254;-89
2023/01/08 13:20:24;;;;;;;2.03;1.20;;;;;;;;;;4970322;28;20928;-88
2023/01/08 13:22:54;;;;;;;1.02;1.00;;;;;;;;;;4974060;28;20200;-88
2023/01/08 13:25:32;;;;;;;1.15;1.13;;;;;;;;;;4974159;28;20211;-89
2023/01/08 13:28:00;;;;;;;1.02;1.02;;;;;;;;;;4972823;28;20210;-88
2023/01/08 13:31:25;;;;;;;1.05;0.88;;;;;;;;;;4973230;28;20227;-88
2023/01/08 13:33:55;;;;;;;1.40;1.30;;;;;;;;;;4973699;28;20715;-89
2023/01/08 13:36:25;;;;;;;1.05;1.02;;;;;;;;;;4973760;28;20200;-87
2023/01/08 13:39:22;;;;;;;1.30;1.20;;;;;;;;;;4973348;28;20554;-88
2023/01/08 13:42:00;;;;;;;1.52;1.10;;;;;;;;;;4973635;28;20251;-88
2023/01/08 13:44:29;;;;;;;1.10;1.10;;;;;;;;;;4972621;28;20258;-88
2023/01/08 13:47:00;;;;;;;1.40;1.30;;;;;;;;;;4973270;28;20291;-88
2023/01/08 13:49:34;;;;;;;1.25;1.10;;;;;;;;;;4972860;28;20291;-88
2023/01/08 13:52:03;;;;;;;1.27;1.20;;;;;;;;;;4954390;29;20220;-88
2023/01/08 13:54:35;;;;;;;1.00;1.00;;;;;;;;;;4966761;28;20235;-88
2023/01/08 13:57:12;;;;;;;0.90;0.90;;;;;;;;;;4977756;28;20193;-88
2023/01/08 13:59:43;;;;;;;1.10;1.10;;;;;;;;;;4974348;28;20227;-89
2023/01/08 14:02:29;;;;;;;1.17;1.08;;;;;;;;;;4977356;28;20196;-87
2023/01/08 14:04:59;;;;;;;1.48;1.25;;;;;;;;;;4977541;28;20204;-88
2023/01/08 14:07:27;;;;;;;0.80;0.77;;;;;;;;;;4977622;28;20503;-88
2023/01/08 14:10:08;;;;;;;0.80;0.80;;;;;;;;;;4976604;28;20224;-88
2023/01/08 14:12:36;;;;;;;1.13;1.10;;;;;;;;;;4978145;28;20732;-88
2023/01/08 14:15:08;;;;;;;0.88;0.88;;;;;;;;;;4977354;28;20239;-88
2023/01/08 14:17:36;;;;;;;1.70;1.60;;;;;;;;;;4977530;28;20204;-89
2023/01/08 14:21:49;;;;;;;0.93;0.93;;;;;;;;;;5151374;27;20297;-88
2023/01/08 14:24:17;;;;;;;1.00;1.00;;;;;;;;;;5151363;27;20708;-88
2023/01/08 14:26:53;;;;;;;1.00;1.00;;;;;;;;;;5151607;27;20202;-88
2023/01/08 14:29:22;;;;;;;1.08;1.08;;;;;;;;;;5150555;27;20202;-88
2023/01/08 14:31:51;;;;;;;1.10;1.10;;;;;;;;;;5151059;27;20218;-88
2023/01/08 14:34:19;;;;;;;0.98;0.98;;;;;;;;;;5151403;27;20206;-88
2023/01/08 14:36:50;;;;;;;0.90;0.90;;;;;;;;;;5151372;27;20212;-88
2023/01/08 14:39:24;;;;;;;0.93;0.93;;;;;;;;;;5151167;27;20245;-88
2023/01/08 14:44:37;;;;;;;1.20;1.13;;;;;;;;;;5151025;27;20178;-88
2023/01/08 14:47:06;;;;;;;1.38;1.30;;;;;;;;;;5150854;27;20193;-88
2023/01/08 14:49:39;;;;;;;1.40;1.30;;;;;;;;;;5136853;27;20199;-86
2023/01/08 14:52:11;;;;;;;1.00;1.00;;;;;;;;;;5130343;28;20429;-87
2023/01/08 14:54:38;;;;;;;1.10;1.10;;;;;;;;;;5129808;28;20682;-87
2023/01/08 14:57:06;;;;;;;1.48;1.38;;;;;;;;;;5130203;28;20639;-87
2023/01/08 14:59:36;;;;;;;1.23;1.23;;;;;;;;;;5134321;27;20734;-88
2023/01/08 15:02:05;;;;;;;1.73;1.15;;;;;;;;;;5130964;28;20211;-86
2023/01/08 15:04:33;;;;;;;1.30;1.20;;;;;;;;;;5131269;28;20213;-87
2023/01/08 15:07:16;;;;;;;0.90;0.90;;;;;;;;;;5131133;27;20234;-87
2023/01/08 15:09:43;;;;;;;1.27;1.10;;;;;;;;;;5130543;28;20176;-87
2023/01/08 15:12:24;;;;;;;1.35;1.27;;;;;;;;;;5130695;28;20290;-87